createdAt,value
2018-03-18T00:02:06.409Z,-0.90
2018-03-18T00:04:33.910Z,-0.87
2018-03-18T00:07:01.376Z,-0.92
2018-03-18T00:09:28.867Z,-0.86
2018-03-18T00:11:56.331Z,-0.83
2018-03-18T00:14:23.824Z,-0.80
2018-03-18T00:16:51.283Z,-0.88
2018-03-18T00:19:18.779Z,-0.85
2018-03-18T00:21:46.250Z,-0.93
2018-03-18T00:24:13.975Z,-0.91
2018-03-18T00:26:43.447Z,-0.96
2018-03-18T00:29:12.016Z,-0.97
2018-03-18T00:31:39.509Z,-0.94
2018-03-18T00:34:07.212Z,-0.96
2018-03-18T00:36:34.683Z,-0.92
2018-03-18T00:39:02.340Z,-0.87
2018-03-18T00:41:30.320Z,-0.88
2018-03-18T00:43:57.918Z,-1.01
2018-03-18T00:46:25.430Z,-0.93
2018-03-18T00:48:53.065Z,-0.90
2018-03-18T00:51:33.392Z,-0.90
2018-03-18T00:54:00.932Z,-0.89
2018-03-18T00:56:28.771Z,-0.92
2018-03-18T00:58:56.331Z,-0.89
2018-03-18T01:01:23.848Z,-0.94
2018-03-18T01:03:51.354Z,-0.83
2018-03-18T01:06:18.895Z,-0.80
2018-03-18T01:08:47.254Z,-0.81
2018-03-18T01:11:15.365Z,-0.92
2018-03-18T01:13:43.206Z,-0.97
2018-03-18T01:16:10.776Z,-0.86
2018-03-18T01:18:39.228Z,-0.89
2018-03-18T01:21:06.820Z,-0.83
2018-03-18T01:23:34.283Z,-0.89
2018-03-18T01:26:01.766Z,-0.85
2018-03-18T01:28:29.231Z,-0.94
2018-03-18T01:30:56.739Z,-1.00
2018-03-18T01:33:24.208Z,-0.90
2018-03-18T01:35:51.708Z,-1.00
2018-03-18T01:38:19.183Z,-0.96
2018-03-18T01:40:46.671Z,-0.97
2018-03-18T01:43:14.140Z,-0.80
2018-03-18T01:45:41.628Z,-0.90
2018-03-18T01:48:09.090Z,-0.85
2018-03-18T01:50:36.588Z,-0.84
2018-03-18T01:53:15.908Z,-0.86
2018-03-18T01:55:43.392Z,-0.94
2018-03-18T01:58:10.863Z,-1.04
2018-03-18T02:00:38.358Z,-1.02
2018-03-18T02:03:05.835Z,-1.03
2018-03-18T02:05:33.317Z,-0.99
2018-03-18T02:08:00.839Z,-0.99
2018-03-18T02:10:28.332Z,-0.95
2018-03-18T02:12:55.833Z,-0.95
2018-03-18T02:15:23.298Z,-0.97
2018-03-18T02:17:50.792Z,-0.99
2018-03-18T02:20:18.261Z,-0.94
2018-03-18T02:22:45.755Z,-0.89
2018-03-18T02:25:13.227Z,-0.88
2018-03-18T02:27:40.959Z,-0.93
2018-03-18T02:30:08.438Z,-0.88
2018-03-18T02:32:35.943Z,-0.88
2018-03-18T02:35:04.256Z,-0.90
2018-03-18T02:37:31.747Z,-0.85
2018-03-18T02:39:59.217Z,-0.97
2018-03-18T02:42:26.705Z,-1.02
2018-03-18T02:44:54.179Z,-0.96
2018-03-18T02:47:21.681Z,-0.91
2018-03-18T02:49:49.144Z,-0.87
2018-03-18T02:52:16.640Z,-0.86
2018-03-18T02:54:44.108Z,-0.91
2018-03-18T02:57:11.607Z,-0.83
2018-03-18T02:59:39.071Z,-0.87
2018-03-18T03:02:06.556Z,-0.85
2018-03-18T03:04:34.015Z,-0.84
2018-03-18T03:07:01.475Z,-0.96
2018-03-18T03:09:28.979Z,-0.88
2018-03-18T03:11:56.447Z,-0.91
2018-03-18T03:14:23.931Z,-0.92
2018-03-18T03:16:51.398Z,-0.97
2018-03-18T03:19:18.891Z,-0.95
2018-03-18T03:21:46.359Z,-1.01
2018-03-18T03:24:13.847Z,-1.02
2018-03-18T03:26:41.309Z,-1.11
2018-03-18T03:29:08.792Z,-1.06
2018-03-18T03:31:36.258Z,-1.08
2018-03-18T03:34:03.835Z,-1.05
2018-03-18T03:36:31.298Z,-1.02
2018-03-18T03:38:58.786Z,-1.05
2018-03-18T03:41:26.265Z,-1.15
2018-03-18T03:43:53.751Z,-1.15
2018-03-18T03:46:21.228Z,-1.14
2018-03-18T03:48:48.723Z,-1.19
2018-03-18T03:51:16.195Z,-1.13
2018-03-18T03:53:43.683Z,-1.20
2018-03-18T03:56:11.150Z,-1.27
2018-03-18T03:58:38.650Z,-1.17
2018-03-18T04:01:06.115Z,-1.28
2018-03-18T04:03:33.575Z,-1.42
2018-03-18T04:06:01.058Z,-1.54
2018-03-18T04:08:28.523Z,-1.70
2018-03-18T04:10:56.012Z,-1.90
2018-03-18T04:13:23.482Z,-1.96
2018-03-18T04:15:50.978Z,-2.00
2018-03-18T04:18:18.442Z,-2.06
2018-03-18T04:20:45.937Z,-2.00
2018-03-18T04:23:13.398Z,-2.02
2018-03-18T04:25:40.886Z,-1.91
2018-03-18T04:28:08.350Z,-1.91
2018-03-18T04:30:35.868Z,-1.88
2018-03-18T04:33:03.337Z,-1.77
2018-03-18T04:35:30.833Z,-1.70
2018-03-18T04:37:58.292Z,-1.85
2018-03-18T04:40:25.794Z,-1.81
2018-03-18T04:42:53.256Z,-1.68
2018-03-18T04:45:20.740Z,-1.60
2018-03-18T04:47:48.218Z,-1.69
2018-03-18T04:50:15.704Z,-1.71
2018-03-18T04:52:43.178Z,-1.72
2018-03-18T04:55:10.684Z,-1.76
2018-03-18T04:57:38.150Z,-1.63
2018-03-18T05:00:05.616Z,-1.76
2018-03-18T05:02:33.109Z,-1.87
2018-03-18T05:05:00.587Z,-1.98
2018-03-18T05:07:28.090Z,-1.97
2018-03-18T05:09:55.546Z,-1.87
2018-03-18T05:12:23.031Z,-1.94
2018-03-18T05:14:50.507Z,-2.00
2018-03-18T05:17:18.002Z,-1.99
2018-03-18T05:19:45.470Z,-2.02
2018-03-18T05:22:12.958Z,-1.96
2018-03-18T05:24:40.417Z,-1.96
2018-03-18T05:27:07.902Z,-2.02
2018-03-18T05:29:35.363Z,-2.16
2018-03-18T05:32:02.860Z,-2.22
2018-03-18T05:34:30.328Z,-2.22
2018-03-18T05:36:57.818Z,-2.19
2018-03-18T05:39:25.285Z,-2.31
2018-03-18T05:41:52.802Z,-2.36
2018-03-18T05:44:20.368Z,-2.37
2018-03-18T05:46:47.839Z,-2.36
2018-03-18T05:49:15.339Z,-2.35
2018-03-18T05:51:42.803Z,-2.42
2018-03-18T05:54:10.376Z,-2.41
2018-03-18T05:56:37.853Z,-2.40
2018-03-18T05:59:05.340Z,-2.35
2018-03-18T06:01:32.807Z,-2.44
2018-03-18T06:04:00.291Z,-2.47
2018-03-18T06:06:27.761Z,-2.49
2018-03-18T06:08:55.263Z,-2.51
2018-03-18T06:11:22.732Z,-2.51
2018-03-18T06:13:50.251Z,-2.45
2018-03-18T06:16:17.711Z,-2.33
2018-03-18T06:18:45.171Z,-2.32
2018-03-18T06:21:12.659Z,-2.31
2018-03-18T06:23:40.115Z,-2.27
2018-03-18T06:26:07.615Z,-2.31
2018-03-18T06:28:35.092Z,-2.29
2018-03-18T06:31:02.600Z,-2.17
2018-03-18T06:33:30.070Z,-2.22
2018-03-18T06:35:57.567Z,-2.17
2018-03-18T06:38:25.033Z,-1.98
2018-03-18T06:40:52.523Z,-2.04
2018-03-18T06:43:19.995Z,-2.07
2018-03-18T06:45:47.483Z,-2.07
2018-03-18T06:48:14.975Z,-2.12
2018-03-18T06:50:42.490Z,-2.07
2018-03-18T06:53:09.946Z,-2.00
2018-03-18T06:55:37.411Z,-1.87
2018-03-18T06:58:04.905Z,-1.94
2018-03-18T07:00:33.495Z,-1.91
2018-03-18T07:03:00.984Z,-1.74
2018-03-18T07:05:28.454Z,-1.62
2018-03-18T07:07:55.941Z,-1.58
2018-03-18T07:10:23.399Z,-1.62
2018-03-18T07:12:50.954Z,-1.50
2018-03-18T07:15:18.375Z,-1.48
2018-03-18T07:17:45.867Z,-1.35
2018-03-18T07:20:13.331Z,-1.26
2018-03-18T07:22:40.838Z,-1.10
2018-03-18T07:25:08.311Z,-1.08
2018-03-18T07:27:35.799Z,-1.03
2018-03-18T07:30:03.269Z,-1.00
2018-03-18T07:32:30.764Z,-0.88
2018-03-18T07:34:58.224Z,-1.02
2018-03-18T07:37:25.748Z,-0.91
2018-03-18T07:39:53.206Z,-0.77
2018-03-18T07:42:20.663Z,-0.85
2018-03-18T07:44:48.151Z,-0.89
2018-03-18T07:47:15.685Z,-1.02
2018-03-18T07:49:43.143Z,-0.79
2018-03-18T07:52:10.604Z,-0.85
2018-03-18T07:54:38.132Z,-0.92
2018-03-18T07:57:05.600Z,-0.90
2018-03-18T07:59:33.089Z,-0.97
2018-03-18T08:02:00.574Z,-0.76
2018-03-18T08:04:28.070Z,-0.60
2018-03-18T08:06:55.531Z,-0.75
2018-03-18T08:09:23.027Z,-0.86
2018-03-18T08:11:50.493Z,-0.91
2018-03-18T08:14:18.054Z,-0.93
2018-03-18T08:16:45.511Z,-0.79
2018-03-18T08:19:12.984Z,-0.69
2018-03-18T08:21:40.484Z,-0.64
2018-03-18T08:24:08.888Z,-0.51
2018-03-18T08:26:36.383Z,-0.41
2018-03-18T08:29:03.864Z,-0.20
2018-03-18T08:31:31.356Z,-0.25
2018-03-18T08:33:58.819Z,-0.38
2018-03-18T08:36:26.307Z,-0.18
2018-03-18T08:38:53.771Z,-0.09
2018-03-18T08:41:21.306Z,0.33
2018-03-18T08:43:48.735Z,0.58
2018-03-18T08:46:16.219Z,0.67
2018-03-18T08:48:43.689Z,0.95
2018-03-18T08:51:11.200Z,1.08
2018-03-18T08:53:38.668Z,1.33
2018-03-18T08:56:06.158Z,0.97
2018-03-18T08:58:33.681Z,0.97
2018-03-18T09:01:01.223Z,0.69
2018-03-18T09:03:28.708Z,0.89
2018-03-18T09:05:56.175Z,1.06
2018-03-18T09:08:23.667Z,1.50
2018-03-18T09:10:51.132Z,1.55
2018-03-18T09:13:18.607Z,2.00
2018-03-18T09:15:46.070Z,1.79
2018-03-18T09:18:13.566Z,1.66
2018-03-18T09:20:41.090Z,2.06
2018-03-18T09:23:08.568Z,1.33
2018-03-18T09:25:36.027Z,1.69
2018-03-18T09:28:03.510Z,1.69
2018-03-18T09:30:30.995Z,1.81
2018-03-18T09:32:58.496Z,1.67
2018-03-18T09:35:25.956Z,2.01
2018-03-18T09:37:53.411Z,1.59
2018-03-18T09:40:20.886Z,1.08
2018-03-18T09:42:48.339Z,1.41
2018-03-18T09:45:15.831Z,1.22
2018-03-18T09:47:43.305Z,1.28
2018-03-18T09:50:10.818Z,1.44
2018-03-18T09:52:38.283Z,1.63
2018-03-18T09:55:05.768Z,2.04
2018-03-18T09:57:33.238Z,2.54
2018-03-18T10:00:00.738Z,2.36
2018-03-18T10:02:28.213Z,2.77
2018-03-18T10:04:55.727Z,3.24
2018-03-18T10:07:23.187Z,3.03
2018-03-18T10:09:50.666Z,2.75
2018-03-18T10:12:18.160Z,2.59
2018-03-18T10:14:45.607Z,2.51
2018-03-18T10:17:13.091Z,2.12
2018-03-18T10:19:40.547Z,1.82
2018-03-18T10:22:08.043Z,2.30
2018-03-18T10:24:35.527Z,2.01
2018-03-18T10:27:03.010Z,2.50
2018-03-18T10:29:30.481Z,2.56
2018-03-18T10:31:57.985Z,2.70
2018-03-18T10:34:25.512Z,2.49
2018-03-18T10:36:53.036Z,2.42
2018-03-18T10:39:20.499Z,3.04
2018-03-18T10:41:47.989Z,2.58
2018-03-18T10:44:15.450Z,2.83
2018-03-18T10:46:42.945Z,2.83
2018-03-18T10:49:10.406Z,2.60
2018-03-18T10:51:37.863Z,2.59
2018-03-18T10:54:16.397Z,3.04
2018-03-18T10:59:23.148Z,2.33
2018-03-18T11:01:55.558Z,2.41
2018-03-18T11:04:23.048Z,2.63
2018-03-18T11:06:50.518Z,2.47
2018-03-18T11:09:18.017Z,1.69
2018-03-18T11:11:45.462Z,1.55
2018-03-18T11:14:12.956Z,1.74
2018-03-18T11:16:40.455Z,1.79
2018-03-18T11:19:07.946Z,1.77
2018-03-18T11:21:35.403Z,1.65
2018-03-18T11:24:02.884Z,1.99
2018-03-18T11:26:30.336Z,2.27
2018-03-18T11:28:57.817Z,2.57
2018-03-18T11:31:25.273Z,2.54
2018-03-18T11:33:52.762Z,2.46
2018-03-18T11:36:20.236Z,2.33
2018-03-18T11:38:47.748Z,2.32
2018-03-18T11:41:15.443Z,2.01
2018-03-18T11:43:43.139Z,2.44
2018-03-18T11:46:10.643Z,2.36
2018-03-18T11:48:38.183Z,2.66
2018-03-18T11:51:05.663Z,2.99
2018-03-18T11:53:33.124Z,2.96
2018-03-18T11:56:00.638Z,3.32
2018-03-18T11:58:28.106Z,2.84
2018-03-18T12:00:55.590Z,3.07
2018-03-18T12:03:23.043Z,3.08
2018-03-18T12:05:50.536Z,3.51
2018-03-18T12:08:30.558Z,3.72
2018-03-18T12:10:58.062Z,3.40
2018-03-18T12:13:26.099Z,3.45
2018-03-18T12:15:53.680Z,3.10
2018-03-18T12:18:21.166Z,3.30
2018-03-18T12:20:49.527Z,3.63
2018-03-18T12:23:16.999Z,3.65
2018-03-18T12:25:44.448Z,3.76
2018-03-18T12:28:11.928Z,3.74
2018-03-18T12:30:39.375Z,3.73
2018-03-18T12:33:06.847Z,3.82
2018-03-18T12:35:45.883Z,3.56
2018-03-18T12:38:13.363Z,3.81
2018-03-18T12:40:51.547Z,4.15
2018-03-18T12:43:27.665Z,3.97
2018-03-18T12:45:55.116Z,3.90
2018-03-18T12:48:22.614Z,3.70
2018-03-18T12:50:50.080Z,2.97
2018-03-18T12:53:17.559Z,3.01
2018-03-18T12:55:45.026Z,3.27
2018-03-18T12:58:13.656Z,3.16
2018-03-18T13:00:41.113Z,3.16
2018-03-18T13:03:08.665Z,3.00
2018-03-18T13:05:36.135Z,2.81
2018-03-18T13:08:03.624Z,2.64
2018-03-18T13:10:31.110Z,2.58
2018-03-18T13:12:58.563Z,2.72
2018-03-18T13:15:26.060Z,2.55
2018-03-18T13:17:53.531Z,2.49
2018-03-18T13:20:21.008Z,2.94
2018-03-18T13:22:48.456Z,2.74
2018-03-18T13:25:15.948Z,2.49
2018-03-18T13:27:43.400Z,2.69
2018-03-18T13:30:10.897Z,2.78
2018-03-18T13:32:38.360Z,2.67
2018-03-18T13:35:05.813Z,2.68
2018-03-18T13:37:33.297Z,2.75
2018-03-18T13:40:00.752Z,2.60
2018-03-18T13:42:28.248Z,2.41
2018-03-18T13:44:55.769Z,2.88
2018-03-18T13:47:23.257Z,2.51
2018-03-18T13:49:50.707Z,2.39
2018-03-18T13:52:18.216Z,2.49
2018-03-18T13:54:45.708Z,2.70
2018-03-18T13:57:13.198Z,2.58
2018-03-18T13:59:41.099Z,2.93
2018-03-18T14:02:09.856Z,2.96
2018-03-18T14:04:37.369Z,3.07
2018-03-18T14:07:04.867Z,3.03
2018-03-18T14:09:32.327Z,3.16
2018-03-18T14:11:59.783Z,2.96
2018-03-18T14:14:27.266Z,2.72
2018-03-18T14:16:56.734Z,2.72
2018-03-18T14:19:24.465Z,2.79
2018-03-18T14:21:51.941Z,2.76
2018-03-18T14:24:19.421Z,2.65
2018-03-18T14:26:46.885Z,2.75
2018-03-18T14:29:14.363Z,2.83
2018-03-18T14:31:41.819Z,2.79
2018-03-18T14:34:09.296Z,2.67
2018-03-18T14:36:36.767Z,2.77
2018-03-18T14:39:04.249Z,2.74
2018-03-18T14:41:31.715Z,2.80
2018-03-18T14:44:01.133Z,2.84
2018-03-18T14:46:28.591Z,2.90
2018-03-18T14:48:56.062Z,2.91
2018-03-18T14:51:23.547Z,3.08
2018-03-18T14:53:51.003Z,3.07
2018-03-18T14:56:18.548Z,3.12
2018-03-18T14:58:46.471Z,3.08
2018-03-18T15:01:13.993Z,3.17
2018-03-18T15:03:41.476Z,3.12
2018-03-18T15:06:08.963Z,3.20
2018-03-18T15:08:36.423Z,3.18
2018-03-18T15:11:03.909Z,3.19
2018-03-18T15:13:31.371Z,3.11
2018-03-18T15:15:58.827Z,2.97
2018-03-18T15:18:26.299Z,2.63
2018-03-18T15:20:53.759Z,2.66
2018-03-18T15:23:21.267Z,2.78
2018-03-18T15:25:48.728Z,2.72
2018-03-18T15:28:16.202Z,2.64
2018-03-18T15:30:43.665Z,2.65
2018-03-18T15:33:11.152Z,2.60
2018-03-18T15:35:38.606Z,2.58
2018-03-18T15:38:06.083Z,2.38
2018-03-18T15:40:33.531Z,2.36
2018-03-18T15:43:01.019Z,2.31
2018-03-18T15:45:28.484Z,2.24
2018-03-18T15:47:55.957Z,2.15
2018-03-18T15:50:23.481Z,2.07
2018-03-18T15:52:51.023Z,2.10
2018-03-18T15:55:18.519Z,2.05
2018-03-18T15:57:45.978Z,2.06
2018-03-18T16:00:13.464Z,2.09
2018-03-18T16:02:41.051Z,2.07
2018-03-18T16:05:08.526Z,2.11
2018-03-18T16:07:36.122Z,2.08
2018-03-18T16:10:03.609Z,2.07
2018-03-18T16:12:31.100Z,2.10
2018-03-18T16:14:58.583Z,2.07
2018-03-18T16:17:26.039Z,2.16
2018-03-18T16:19:53.524Z,2.13
2018-03-18T16:22:20.979Z,2.09
2018-03-18T16:24:48.475Z,2.05
2018-03-18T16:27:15.940Z,2.10
2018-03-18T16:29:55.280Z,2.00
2018-03-18T16:32:22.735Z,1.93
2018-03-18T16:34:50.208Z,1.91
2018-03-18T16:37:20.663Z,1.85
2018-03-18T16:39:48.127Z,1.76
2018-03-18T16:42:16.191Z,1.74
2018-03-18T16:44:43.694Z,1.65
2018-03-18T16:47:11.188Z,1.56
2018-03-18T16:49:43.701Z,1.58
2018-03-18T16:52:11.220Z,1.48
2018-03-18T16:54:39.074Z,1.51
2018-03-18T16:57:06.598Z,1.48
2018-03-18T16:59:34.063Z,1.42
2018-03-18T17:02:01.544Z,1.37
2018-03-18T17:04:29.000Z,1.34
2018-03-18T17:06:56.500Z,1.32
2018-03-18T17:09:23.988Z,1.31
2018-03-18T17:11:51.479Z,1.28
2018-03-18T17:14:18.990Z,1.21
2018-03-18T17:16:47.063Z,1.15
2018-03-18T17:19:14.519Z,1.15
2018-03-18T17:21:41.977Z,1.16
2018-03-18T17:24:10.316Z,1.08
2018-03-18T17:26:37.778Z,1.14
2018-03-18T17:29:05.293Z,1.10
2018-03-18T17:31:32.763Z,1.08
2018-03-18T17:34:00.280Z,1.03
2018-03-18T17:36:27.735Z,0.94
2018-03-18T17:38:55.206Z,0.92
2018-03-18T17:41:22.659Z,0.93
2018-03-18T17:43:50.168Z,0.91
2018-03-18T17:46:29.307Z,0.89
2018-03-18T17:49:08.542Z,0.83
2018-03-18T17:51:47.597Z,0.87
2018-03-18T17:54:26.947Z,0.81
2018-03-18T17:56:54.399Z,0.77
2018-03-18T17:59:21.883Z,0.78
2018-03-18T18:01:49.387Z,0.74
2018-03-18T18:04:16.883Z,0.70
2018-03-18T18:06:44.343Z,0.72
2018-03-18T18:09:11.850Z,0.64
2018-03-18T18:11:39.324Z,0.56
2018-03-18T18:14:06.775Z,0.47
2018-03-18T18:16:34.281Z,0.45
2018-03-18T18:19:01.739Z,0.40
2018-03-18T18:21:29.256Z,0.37
2018-03-18T18:23:56.711Z,0.34
2018-03-18T18:26:24.231Z,0.32
2018-03-18T18:28:51.712Z,0.30
2018-03-18T18:31:19.205Z,0.31
2018-03-18T18:33:46.659Z,0.35
2018-03-18T18:36:14.148Z,0.33
2018-03-18T18:38:41.621Z,0.32
2018-03-18T18:41:09.126Z,0.36
2018-03-18T18:43:36.603Z,0.37
2018-03-18T18:46:04.078Z,0.43
2018-03-18T18:48:31.567Z,0.49
2018-03-18T18:50:59.023Z,0.48
2018-03-18T18:53:26.532Z,0.42
2018-03-18T18:55:54.000Z,0.40
2018-03-18T18:58:21.478Z,0.36
2018-03-18T19:00:48.933Z,0.35
2018-03-18T19:03:16.436Z,0.38
2018-03-18T19:05:43.886Z,0.36
2018-03-18T19:08:11.388Z,0.36
2018-03-18T19:10:38.853Z,0.35
2018-03-18T19:13:06.314Z,0.29
2018-03-18T19:15:33.792Z,0.37
2018-03-18T19:18:01.273Z,0.35
2018-03-18T19:20:28.746Z,0.28
2018-03-18T19:22:56.203Z,0.34
2018-03-18T19:25:23.692Z,0.27
2018-03-18T19:27:51.155Z,0.26
2018-03-18T19:30:18.683Z,0.28
2018-03-18T19:32:46.152Z,0.28
2018-03-18T19:35:13.687Z,0.28
2018-03-18T19:37:41.157Z,0.25
2018-03-18T19:40:08.652Z,0.19
2018-03-18T19:42:36.131Z,0.18
2018-03-18T19:45:03.698Z,0.24
2018-03-18T19:47:31.180Z,0.31
2018-03-18T19:50:01.267Z,0.24
2018-03-18T19:52:28.737Z,0.19
2018-03-18T19:54:56.204Z,0.25
2018-03-18T19:57:23.701Z,0.24
2018-03-18T19:59:51.176Z,0.21
2018-03-18T20:02:18.676Z,0.23
2018-03-18T20:04:46.126Z,0.21
2018-03-18T20:07:13.612Z,0.11
2018-03-18T20:09:41.088Z,0.12
2018-03-18T20:12:08.875Z,0.15
2018-03-18T20:14:36.345Z,0.11
2018-03-18T20:17:03.826Z,0.10
2018-03-18T20:19:31.315Z,0.15
2018-03-18T20:21:58.805Z,0.12
2018-03-18T20:24:27.271Z,0.08
2018-03-18T20:26:54.834Z,0.09
2018-03-18T20:29:22.552Z,0.08
2018-03-18T20:31:50.139Z,0.07
2018-03-18T20:34:17.602Z,0.11
2018-03-18T20:36:45.088Z,0.10
2018-03-18T20:39:12.620Z,0.08
2018-03-18T20:41:40.145Z,0.05
2018-03-18T20:44:07.662Z,0.02
2018-03-18T20:46:35.143Z,0.02
2018-03-18T20:49:02.658Z,0.01
2018-03-18T20:51:30.188Z,-0.10
2018-03-18T20:53:58.563Z,-0.09
2018-03-18T20:56:26.055Z,-0.09
2018-03-18T20:58:55.644Z,-0.11
2018-03-18T21:01:23.157Z,-0.13
2018-03-18T21:03:51.005Z,-0.11
2018-03-18T21:06:18.956Z,-0.13
2018-03-18T21:08:46.498Z,-0.17
2018-03-18T21:11:13.985Z,-0.18
2018-03-18T21:13:41.506Z,-0.17
2018-03-18T21:16:09.002Z,-0.17
2018-03-18T21:18:36.527Z,-0.15
2018-03-18T21:21:03.992Z,-0.12
2018-03-18T21:23:31.494Z,-0.15
2018-03-18T21:25:58.980Z,-0.15
2018-03-18T21:28:26.562Z,-0.19
2018-03-18T21:30:54.116Z,-0.20
2018-03-18T21:33:21.635Z,-0.24
2018-03-18T21:35:49.143Z,-0.26
2018-03-18T21:38:16.675Z,-0.32
2018-03-18T21:40:44.154Z,-0.22
2018-03-18T21:43:11.657Z,-0.24
2018-03-18T21:45:39.240Z,-0.27
2018-03-18T21:48:06.803Z,-0.32
2018-03-18T21:50:34.356Z,-0.36
2018-03-18T21:53:01.905Z,-0.41
2018-03-18T21:55:29.477Z,-0.44
2018-03-18T21:57:57.937Z,-0.39
2018-03-18T22:00:25.556Z,-0.38
2018-03-18T22:02:53.076Z,-0.39
2018-03-18T22:05:20.720Z,-0.40
2018-03-18T22:07:48.245Z,-0.42
2018-03-18T22:10:15.816Z,-0.42
2018-03-18T22:12:43.381Z,-0.47
2018-03-18T22:15:10.985Z,-0.46
2018-03-18T22:17:38.523Z,-0.52
2018-03-18T22:20:06.092Z,-0.56
2018-03-18T22:22:33.656Z,-0.54
2018-03-18T22:25:01.235Z,-0.54
2018-03-18T22:27:28.784Z,-0.48
2018-03-18T22:29:56.344Z,-0.55
2018-03-18T22:32:23.905Z,-0.51
2018-03-18T22:34:51.440Z,-0.57
2018-03-18T22:37:19.000Z,-0.61
2018-03-18T22:39:46.535Z,-0.63
2018-03-18T22:42:14.660Z,-0.65
2018-03-18T22:44:42.196Z,-0.66
2018-03-18T22:47:09.777Z,-0.65
2018-03-18T22:49:37.332Z,-0.68
2018-03-18T22:52:04.973Z,-0.67
2018-03-18T22:54:32.523Z,-0.64
2018-03-18T22:57:00.050Z,-0.63
2018-03-18T22:59:27.633Z,-0.65
2018-03-18T23:01:55.153Z,-0.60
2018-03-18T23:04:22.704Z,-0.61
2018-03-18T23:06:50.229Z,-0.65
2018-03-18T23:09:17.720Z,-0.65
2018-03-18T23:11:45.187Z,-0.63
2018-03-18T23:14:12.665Z,-0.64
2018-03-18T23:16:40.128Z,-0.67
2018-03-18T23:19:07.623Z,-0.70
2018-03-18T23:21:35.075Z,-0.65
2018-03-18T23:24:02.592Z,-0.74
2018-03-18T23:26:30.042Z,-0.78
2018-03-18T23:28:57.519Z,-0.79
2018-03-18T23:31:24.981Z,-0.81
2018-03-18T23:33:52.498Z,-0.81
2018-03-18T23:36:19.958Z,-0.84
2018-03-18T23:38:47.420Z,-0.78
2018-03-18T23:41:14.906Z,-0.78
2018-03-18T23:43:42.365Z,-0.78
2018-03-18T23:46:09.863Z,-0.75
2018-03-18T23:48:37.322Z,-0.66
2018-03-18T23:51:04.815Z,-0.69
2018-03-18T23:53:32.267Z,-0.74
2018-03-18T23:55:59.749Z,-0.72
2018-03-18T23:58:27.207Z,-0.67
